sensor_id;sensor_type;location;lat;lon;timestamp;pressure;altitude;pressure_sealevel;temperature;humidity
21826;BME280;11075;47.944;11.776;2022-08-19T00:01:40;94272.13;;;26.48;24.90
21826;BME280;11075;47.944;11.776;2022-08-19T00:04:10;94254.16;;;25.99;25.22
21826;BME280;11075;47.944;11.776;2022-08-19T00:06:40;94252.53;;;26.95;24.54
21826;BME280;11075;47.944;11.776;2022-08-19T00:09:11;94233.81;;;26.59;25.05
21826;BME280;11075;47.944;11.776;2022-08-19T00:11:38;94217.56;;;25.17;26.30
21826;BME280;11075;47.944;11.776;2022-08-19T00:14:07;94230.44;;;25.67;25.51
21826;BME280;11075;47.944;11.776;2022-08-19T00:16:36;94204.72;;;23.67;28.57
21826;BME280;11075;47.944;11.776;2022-08-19T00:19:05;94213.75;;;23.97;27.64
21826;BME280;11075;47.944;11.776;2022-08-19T00:21:32;94229.03;;;24.27;26.92
21826;BME280;11075;47.944;11.776;2022-08-19T00:23:59;94266.22;;;25.46;25.79
21826;BME280;11075;47.944;11.776;2022-08-19T00:26:27;94263.56;;;25.07;26.61
21826;BME280;11075;47.944;11.776;2022-08-19T00:28:55;94243.16;;;24.12;27.59
21826;BME280;11075;47.944;11.776;2022-08-19T00:31:21;94272.19;;;26.66;24.48
21826;BME280;11075;47.944;11.776;2022-08-19T00:33:49;94264.75;;;26.01;25.22
21826;BME280;11075;47.944;11.776;2022-08-19T00:36:17;94241.19;;;26.09;25.46
21826;BME280;11075;47.944;11.776;2022-08-19T00:38:44;94222.06;;;26.15;25.18
21826;BME280;11075;47.944;11.776;2022-08-19T00:41:15;94237.19;;;27.61;23.18
21826;BME280;11075;47.944;11.776;2022-08-19T00:44:00;94202.16;;;25.76;25.05
21826;BME280;11075;47.944;11.776;2022-08-19T00:46:27;94188.25;;;23.67;27.32
21826;BME280;11075;47.944;11.776;2022-08-19T00:48:55;94220.19;;;26.64;24.51
21826;BME280;11075;47.944;11.776;2022-08-19T00:51:25;94182.13;;;24.81;26.25
21826;BME280;11075;47.944;11.776;2022-08-19T00:53:55;94206.75;;;26.45;24.12
21826;BME280;11075;47.944;11.776;2022-08-19T00:56:23;94205.97;;;26.44;24.24
21826;BME280;11075;47.944;11.776;2022-08-19T00:58:50;94167.28;;;24.66;25.99
21826;BME280;11075;47.944;11.776;2022-08-19T01:01:17;94176.59;;;25.06;25.71
21826;BME280;11075;47.944;11.776;2022-08-19T01:03:44;94187.16;;;27.10;23.77
21826;BME280;11075;47.944;11.776;2022-08-19T01:06:24;94190.28;;;26.72;23.81
21826;BME280;11075;47.944;11.776;2022-08-19T01:08:52;94178.25;;;26.26;24.61
21826;BME280;11075;47.944;11.776;2022-08-19T01:11:20;94167.34;;;25.48;25.28
21826;BME280;11075;47.944;11.776;2022-08-19T01:13:47;94171.69;;;24.51;26.43
21826;BME280;11075;47.944;11.776;2022-08-19T01:16:18;94217.94;;;26.41;24.28
21826;BME280;11075;47.944;11.776;2022-08-19T01:18:46;94203.28;;;24.84;25.82
21826;BME280;11075;47.944;11.776;2022-08-19T01:21:33;94231.94;;;24.07;26.95
21826;BME280;11075;47.944;11.776;2022-08-19T01:24:01;94236.44;;;24.81;25.92
21826;BME280;11075;47.944;11.776;2022-08-19T01:26:28;94272.50;;;27.57;23.01
21826;BME280;11075;47.944;11.776;2022-08-19T01:28:58;94257.44;;;26.60;24.25
21826;BME280;11075;47.944;11.776;2022-08-19T01:31:28;94250.41;;;26.68;23.88
21826;BME280;11075;47.944;11.776;2022-08-19T01:34:00;94239.44;;;25.81;24.94
21826;BME280;11075;47.944;11.776;2022-08-19T01:36:29;94242.34;;;26.21;24.01
21826;BME280;11075;47.944;11.776;2022-08-19T01:38:58;94246.38;;;26.07;24.48
21826;BME280;11075;47.944;11.776;2022-08-19T01:41:26;94248.38;;;26.90;23.22
21826;BME280;11075;47.944;11.776;2022-08-19T01:43:53;94242.31;;;26.43;23.75
21826;BME280;11075;47.944;11.776;2022-08-19T01:46:41;94246.63;;;26.44;23.87
21826;BME280;11075;47.944;11.776;2022-08-19T01:49:09;94219.66;;;23.82;27.06
21826;BME280;11075;47.944;11.776;2022-08-19T01:51:37;94236.63;;;24.35;26.46
21826;BME280;11075;47.944;11.776;2022-08-19T01:54:08;94228.78;;;23.79;27.07
21826;BME280;11075;47.944;11.776;2022-08-19T01:56:35;94222.19;;;23.15;28.08
21826;BME280;11075;47.944;11.776;2022-08-19T01:59:14;94261.25;;;26.31;24.17
21826;BME280;11075;47.944;11.776;2022-08-19T02:01:42;94269.81;;;26.46;24.08
21826;BME280;11075;47.944;11.776;2022-08-19T02:04:09;94255.56;;;24.46;26.01
21826;BME280;11075;47.944;11.776;2022-08-19T02:06:36;94233.34;;;23.25;27.50
21826;BME280;11075;47.944;11.776;2022-08-19T02:09:04;94268.28;;;23.40;27.26
21826;BME280;11075;47.944;11.776;2022-08-19T02:11:33;94286.56;;;24.75;25.74
21826;BME280;11075;47.944;11.776;2022-08-19T02:14:04;94265.66;;;23.66;27.05
21826;BME280;11075;47.944;11.776;2022-08-19T02:16:32;94269.44;;;24.30;26.34
21826;BME280;11075;47.944;11.776;2022-08-19T02:18:59;94232.63;;;23.53;26.91
21826;BME280;11075;47.944;11.776;2022-08-19T02:21:29;94280.06;;;26.46;23.45
21826;BME280;11075;47.944;11.776;2022-08-19T02:23:57;94236.06;;;23.86;26.79
21826;BME280;11075;47.944;11.776;2022-08-19T02:26:24;94228.78;;;24.21;26.26
21826;BME280;11075;47.944;11.776;2022-08-19T02:28:54;94230.34;;;25.24;25.12
21826;BME280;11075;47.944;11.776;2022-08-19T02:31:23;94226.78;;;25.70;24.45
21826;BME280;11075;47.944;11.776;2022-08-19T02:33:52;94226.38;;;25.94;24.10
21826;BME280;11075;47.944;11.776;2022-08-19T02:36:24;94190.94;;;23.55;27.04
21826;BME280;11075;47.944;11.776;2022-08-19T02:38:51;94225.19;;;25.00;25.26
21826;BME280;11075;47.944;11.776;2022-08-19T02:41:24;94206.53;;;23.74;26.66
21826;BME280;11075;47.944;11.776;2022-08-19T02:43:56;94219.16;;;24.00;26.60
21826;BME280;11075;47.944;11.776;2022-08-19T02:46:46;94198.72;;;21.70;29.06
21826;BME280;11075;47.944;11.776;2022-08-19T02:49:14;94240.28;;;25.90;24.21
21826;BME280;11075;47.944;11.776;2022-08-19T02:51:44;94212.84;;;24.41;26.03
21826;BME280;11075;47.944;11.776;2022-08-19T02:54:13;94211.09;;;25.46;24.80
21826;BME280;11075;47.944;11.776;2022-08-19T02:56:41;94196.81;;;23.98;25.96
21826;BME280;11075;47.944;11.776;2022-08-19T02:59:08;94204.59;;;24.80;25.31
21826;BME280;11075;47.944;11.776;2022-08-19T03:01:38;94191.84;;;23.93;26.18
21826;BME280;11075;47.944;11.776;2022-08-19T03:04:09;94220.56;;;24.34;25.77
21826;BME280;11075;47.944;11.776;2022-08-19T03:06:38;94202.13;;;23.47;26.95
21826;BME280;11075;47.944;11.776;2022-08-19T03:09:06;94211.00;;;24.76;25.00
21826;BME280;11075;47.944;11.776;2022-08-19T03:11:33;94222.34;;;24.66;25.43
21826;BME280;11075;47.944;11.776;2022-08-19T03:14:00;94215.81;;;25.11;24.96
21826;BME280;11075;47.944;11.776;2022-08-19T03:16:29;94200.34;;;23.99;26.40
21826;BME280;11075;47.944;11.776;2022-08-19T03:18:59;94234.47;;;25.41;24.82
21826;BME280;11075;47.944;11.776;2022-08-19T03:21:29;94249.88;;;26.51;23.51
21826;BME280;11075;47.944;11.776;2022-08-19T03:23:58;94244.13;;;26.67;22.91
21826;BME280;11075;47.944;11.776;2022-08-19T03:26:25;94200.09;;;24.86;25.03
21826;BME280;11075;47.944;11.776;2022-08-19T03:28:52;94230.81;;;25.91;23.90
21826;BME280;11075;47.944;11.776;2022-08-19T03:31:25;94229.16;;;24.87;25.17
21826;BME280;11075;47.944;11.776;2022-08-19T03:34:13;94244.59;;;26.13;23.54
21826;BME280;11075;47.944;11.776;2022-08-19T03:36:40;94257.66;;;26.75;23.02
21826;BME280;11075;47.944;11.776;2022-08-19T03:39:09;94221.09;;;26.09;23.65
21826;BME280;11075;47.944;11.776;2022-08-19T03:41:39;94223.84;;;26.09;23.82
21826;BME280;11075;47.944;11.776;2022-08-19T03:44:18;94216.47;;;25.62;23.86
21826;BME280;11075;47.944;11.776;2022-08-19T03:46:51;94206.91;;;25.41;24.09
21826;BME280;11075;47.944;11.776;2022-08-19T03:49:19;94220.38;;;25.73;24.04
21826;BME280;11075;47.944;11.776;2022-08-19T03:51:53;94230.41;;;26.55;23.29
21826;BME280;11075;47.944;11.776;2022-08-19T03:54:21;94188.69;;;24.07;25.69
21826;BME280;11075;47.944;11.776;2022-08-19T03:56:51;94235.59;;;27.24;22.13
21826;BME280;11075;47.944;11.776;2022-08-19T03:59:28;94234.38;;;27.25;22.54
21826;BME280;11075;47.944;11.776;2022-08-19T04:01:58;94214.88;;;25.95;23.77
21826;BME280;11075;47.944;11.776;2022-08-19T04:04:26;94205.16;;;24.49;25.24
21826;BME280;11075;47.944;11.776;2022-08-19T04:06:55;94236.88;;;26.61;23.02
21826;BME280;11075;47.944;11.776;2022-08-19T04:09:23;94225.84;;;26.08;23.08
21826;BME280;11075;47.944;11.776;2022-08-19T04:11:52;94227.47;;;26.49;22.90
21826;BME280;11075;47.944;11.776;2022-08-19T04:14:22;94222.63;;;25.88;24.01
21826;BME280;11075;47.944;11.776;2022-08-19T04:16:51;94225.13;;;26.39;22.90
21826;BME280;11075;47.944;11.776;2022-08-19T04:19:19;94237.66;;;26.61;22.76
21826;BME280;11075;47.944;11.776;2022-08-19T04:21:48;94236.81;;;26.43;23.20
21826;BME280;11075;47.944;11.776;2022-08-19T04:24:17;94242.22;;;26.86;22.64
21826;BME280;11075;47.944;11.776;2022-08-19T04:26:44;94262.25;;;27.09;22.44
21826;BME280;11075;47.944;11.776;2022-08-19T04:29:22;94262.19;;;27.40;22.44
21826;BME280;11075;47.944;11.776;2022-08-19T04:31:53;94260.03;;;26.85;22.44
21826;BME280;11075;47.944;11.776;2022-08-19T04:34:22;94261.13;;;27.46;22.40
21826;BME280;11075;47.944;11.776;2022-08-19T04:36:51;94252.50;;;26.55;22.80
21826;BME280;11075;47.944;11.776;2022-08-19T04:39:24;94264.63;;;27.19;22.43
21826;BME280;11075;47.944;11.776;2022-08-19T04:42:12;94259.13;;;26.88;22.68
21826;BME280;11075;47.944;11.776;2022-08-19T04:44:58;94245.31;;;25.70;23.78
21826;BME280;11075;47.944;11.776;2022-08-19T04:47:25;94256.56;;;25.76;23.77
21826;BME280;11075;47.944;11.776;2022-08-19T04:50:13;94274.59;;;26.55;22.76
21826;BME280;11075;47.944;11.776;2022-08-19T04:52:44;94278.03;;;26.99;22.41
21826;BME280;11075;47.944;11.776;2022-08-19T04:55:11;94273.97;;;26.07;23.56
21826;BME280;11075;47.944;11.776;2022-08-19T04:57:39;94286.31;;;27.48;21.95
21826;BME280;11075;47.944;11.776;2022-08-19T05:00:08;94293.44;;;27.77;22.11
21826;BME280;11075;47.944;11.776;2022-08-19T05:02:36;94277.31;;;27.08;22.53
21826;BME280;11075;47.944;11.776;2022-08-19T05:05:04;94284.84;;;27.75;21.92
21826;BME280;11075;47.944;11.776;2022-08-19T05:07:32;94279.53;;;27.22;22.53
21826;BME280;11075;47.944;11.776;2022-08-19T05:09:59;94297.59;;;28.27;21.33
21826;BME280;11075;47.944;11.776;2022-08-19T05:12:26;94277.00;;;27.64;21.73
21826;BME280;11075;47.944;11.776;2022-08-19T05:14:56;94290.09;;;28.18;21.08
21826;BME280;11075;47.944;11.776;2022-08-19T05:17:26;94274.09;;;27.18;22.21
21826;BME280;11075;47.944;11.776;2022-08-19T05:19:59;94296.53;;;28.24;21.35
21826;BME280;11075;47.944;11.776;2022-08-19T05:22:45;94281.47;;;28.07;21.58
21826;BME280;11075;47.944;11.776;2022-08-19T05:25:16;94283.63;;;28.21;21.69
21826;BME280;11075;47.944;11.776;2022-08-19T05:27:46;94288.63;;;28.69;21.17
21826;BME280;11075;47.944;11.776;2022-08-19T05:30:14;94271.63;;;27.97;21.53
21826;BME280;11075;47.944;11.776;2022-08-19T05:32:41;94254.69;;;27.58;21.98
21826;BME280;11075;47.944;11.776;2022-08-19T05:35:08;94241.66;;;27.01;22.82
21826;BME280;11075;47.944;11.776;2022-08-19T05:37:36;94245.47;;;27.52;22.53
21826;BME280;11075;47.944;11.776;2022-08-19T05:40:03;94259.00;;;28.23;21.78
21826;BME280;11075;47.944;11.776;2022-08-19T05:42:31;94247.94;;;28.14;21.91
21826;BME280;11075;47.944;11.776;2022-08-19T05:44:58;94255.88;;;28.58;21.27
21826;BME280;11075;47.944;11.776;2022-08-19T05:47:25;94239.63;;;27.59;22.83
21826;BME280;11075;47.944;11.776;2022-08-19T05:49:52;94242.41;;;27.96;22.39
21826;BME280;11075;47.944;11.776;2022-08-19T05:52:19;94239.47;;;27.45;22.97
21826;BME280;11075;47.944;11.776;2022-08-19T05:54:52;94236.41;;;27.52;23.08
21826;BME280;11075;47.944;11.776;2022-08-19T05:57:23;94238.53;;;26.80;23.43
21826;BME280;11075;47.944;11.776;2022-08-19T05:59:51;94272.25;;;28.89;21.23
21826;BME280;11075;47.944;11.776;2022-08-19T06:02:28;94280.19;;;28.54;21.34
21826;BME280;11075;47.944;11.776;2022-08-19T06:04:57;94265.53;;;28.63;21.80
21826;BME280;11075;47.944;11.776;2022-08-19T06:07:24;94276.34;;;28.42;21.61
21826;BME280;11075;47.944;11.776;2022-08-19T06:09:51;94275.28;;;28.40;21.81
21826;BME280;11075;47.944;11.776;2022-08-19T06:12:29;94284.78;;;29.08;21.62
21826;BME280;11075;47.944;11.776;2022-08-19T06:15:10;94277.75;;;28.38;21.99
21826;BME280;11075;47.944;11.776;2022-08-19T06:17:37;94279.78;;;28.88;21.46
21826;BME280;11075;47.944;11.776;2022-08-19T06:20:07;94256.41;;;27.83;22.65
21826;BME280;11075;47.944;11.776;2022-08-19T06:22:39;94265.94;;;28.88;21.76
21826;BME280;11075;47.944;11.776;2022-08-19T06:25:07;94258.97;;;28.51;21.68
21826;BME280;11075;47.944;11.776;2022-08-19T06:27:36;94252.81;;;28.47;22.43
21826;BME280;11075;47.944;11.776;2022-08-19T06:30:14;94263.53;;;29.05;21.54
21826;BME280;11075;47.944;11.776;2022-08-19T06:32:41;94245.19;;;28.05;22.48
21826;BME280;11075;47.944;11.776;2022-08-19T06:35:08;94246.88;;;28.03;22.92
21826;BME280;11075;47.944;11.776;2022-08-19T06:37:36;94264.06;;;28.95;21.82
21826;BME280;11075;47.944;11.776;2022-08-19T06:40:07;94251.94;;;29.16;21.86
21826;BME280;11075;47.944;11.776;2022-08-19T06:42:35;94250.69;;;29.17;21.87
21826;BME280;11075;47.944;11.776;2022-08-19T06:45:02;94248.88;;;28.11;22.97
21826;BME280;11075;47.944;11.776;2022-08-19T06:47:34;94224.81;;;26.77;24.04
21826;BME280;11075;47.944;11.776;2022-08-19T06:50:02;94246.31;;;28.59;22.86
21826;BME280;11075;47.944;11.776;2022-08-19T06:52:33;94225.81;;;28.14;23.14
21826;BME280;11075;47.944;11.776;2022-08-19T06:55:04;94231.94;;;28.18;23.03
21826;BME280;11075;47.944;11.776;2022-08-19T06:57:32;94240.53;;;28.90;22.67
21826;BME280;11075;47.944;11.776;2022-08-19T06:59:59;94231.38;;;28.99;22.76
21826;BME280;11075;47.944;11.776;2022-08-19T07:02:29;94229.56;;;28.53;22.67
21826;BME280;11075;47.944;11.776;2022-08-19T07:04:56;94229.25;;;28.94;22.59
21826;BME280;11075;47.944;11.776;2022-08-19T07:07:25;94217.22;;;27.67;23.30
21826;BME280;11075;47.944;11.776;2022-08-19T07:09:52;94198.38;;;26.57;24.88
21826;BME280;11075;47.944;11.776;2022-08-19T07:12:31;94208.81;;;27.12;24.15
21826;BME280;11075;47.944;11.776;2022-08-19T07:15:07;94242.56;;;29.13;22.30
21826;BME280;11075;47.944;11.776;2022-08-19T07:17:35;94232.03;;;28.94;22.71
21826;BME280;11075;47.944;11.776;2022-08-19T07:20:08;94228.72;;;29.37;22.34
21826;BME280;11075;47.944;11.776;2022-08-19T07:22:37;94216.88;;;27.92;23.66
21826;BME280;11075;47.944;11.776;2022-08-19T07:25:06;94215.66;;;26.49;25.48
21826;BME280;11075;47.944;11.776;2022-08-19T07:27:33;94209.88;;;25.12;26.33
21826;BME280;11075;47.944;11.776;2022-08-19T07:30:01;94225.34;;;26.53;25.82
21826;BME280;11075;47.944;11.776;2022-08-19T07:32:27;94223.94;;;26.49;25.77
21826;BME280;11075;47.944;11.776;2022-08-19T07:34:55;94232.59;;;27.68;24.56
21826;BME280;11075;47.944;11.776;2022-08-19T07:37:25;94218.81;;;24.78;27.00
21826;BME280;11075;47.944;11.776;2022-08-19T07:39:59;94238.25;;;26.87;24.71
21826;BME280;11075;47.944;11.776;2022-08-19T07:42:26;94217.91;;;26.10;26.35
21826;BME280;11075;47.944;11.776;2022-08-19T07:44:54;94225.63;;;24.35;27.30
21826;BME280;11075;47.944;11.776;2022-08-19T07:47:22;94294.38;;;28.01;23.57
21826;BME280;11075;47.944;11.776;2022-08-19T07:50:10;94226.38;;;23.36;29.00
21826;BME280;11075;47.944;11.776;2022-08-19T07:52:38;94270.56;;;26.47;25.22
21826;BME280;11075;47.944;11.776;2022-08-19T07:55:08;94280.84;;;27.85;23.62
21826;BME280;11075;47.944;11.776;2022-08-19T07:57:56;94251.78;;;26.11;25.58
21826;BME280;11075;47.944;11.776;2022-08-19T08:00:24;94259.16;;;26.35;25.18
21826;BME280;11075;47.944;11.776;2022-08-19T08:02:52;94280.25;;;28.87;22.96
21826;BME280;11075;47.944;11.776;2022-08-19T08:05:23;94282.41;;;28.92;22.67
21826;BME280;11075;47.944;11.776;2022-08-19T08:08:11;94227.13;;;25.72;26.31
21826;BME280;11075;47.944;11.776;2022-08-19T08:10:58;94255.94;;;26.99;24.57
21826;BME280;11075;47.944;11.776;2022-08-19T08:13:25;94266.34;;;27.53;23.93
21826;BME280;11075;47.944;11.776;2022-08-19T08:15:53;94280.38;;;27.96;23.39
21826;BME280;11075;47.944;11.776;2022-08-19T08:18:23;94287.50;;;28.84;22.81
21826;BME280;11075;47.944;11.776;2022-08-19T08:20:55;94250.31;;;25.15;26.10
21826;BME280;11075;47.944;11.776;2022-08-19T08:23:23;94298.91;;;29.19;22.25
21826;BME280;11075;47.944;11.776;2022-08-19T08:25:54;94289.69;;;29.13;22.45
21826;BME280;11075;47.944;11.776;2022-08-19T08:28:22;94274.50;;;28.39;23.50
21826;BME280;11075;47.944;11.776;2022-08-19T08:30:49;94257.19;;;25.80;25.60
21826;BME280;11075;47.944;11.776;2022-08-19T08:33:19;94300.69;;;28.11;23.50
21826;BME280;11075;47.944;11.776;2022-08-19T08:36:05;94265.97;;;26.44;25.15
21826;BME280;11075;47.944;11.776;2022-08-19T08:38:32;94284.22;;;27.89;23.57
21826;BME280;11075;47.944;11.776;2022-08-19T08:43:40;94275.53;;;27.23;24.19
21826;BME280;11075;47.944;11.776;2022-08-19T08:46:14;94299.53;;;29.14;22.62
21826;BME280;11075;47.944;11.776;2022-08-19T08:51:48;94282.94;;;28.63;23.05
21826;BME280;11075;47.944;11.776;2022-08-19T08:54:30;94287.09;;;28.59;23.07
21826;BME280;11075;47.944;11.776;2022-08-19T08:57:04;94271.34;;;29.16;22.70
21826;BME280;11075;47.944;11.776;2022-08-19T08:59:37;94280.78;;;29.42;22.28
21826;BME280;11075;47.944;11.776;2022-08-19T09:02:05;94260.34;;;28.37;23.65
21826;BME280;11075;47.944;11.776;2022-08-19T09:04:35;94262.97;;;28.32;23.73
21826;BME280;11075;47.944;11.776;2022-08-19T09:15:13;94260.19;;;25.51;26.67
21826;BME280;11075;47.944;11.776;2022-08-19T09:17:41;94305.38;;;29.26;23.11
21826;BME280;11075;47.944;11.776;2022-08-19T09:20:22;94269.81;;;26.02;27.00
21826;BME280;11075;47.944;11.776;2022-08-19T09:22:51;94298.66;;;26.76;25.38
21826;BME280;11075;47.944;11.776;2022-08-19T09:25:20;94281.75;;;26.43;25.41
21826;BME280;11075;47.944;11.776;2022-08-19T09:27:55;94285.78;;;28.17;24.79
21826;BME280;11075;47.944;11.776;2022-08-19T09:30:34;94298.84;;;28.08;23.72
21826;BME280;11075;47.944;11.776;2022-08-19T09:33:05;94283.75;;;27.14;24.90
21826;BME280;11075;47.944;11.776;2022-08-19T09:35:33;94293.59;;;28.98;23.30
21826;BME280;11075;47.944;11.776;2022-08-19T09:38:20;94235.63;;;23.42;29.53
21826;BME280;11075;47.944;11.776;2022-08-19T09:40:48;94298.88;;;29.29;23.43
21826;BME280;11075;47.944;11.776;2022-08-19T09:43:16;94297.75;;;28.23;24.50
21826;BME280;11075;47.944;11.776;2022-08-19T09:46:00;94259.25;;;26.54;25.51
21826;BME280;11075;47.944;11.776;2022-08-19T09:48:28;94282.63;;;27.33;25.29
21826;BME280;11075;47.944;11.776;2022-08-19T09:50:54;94302.84;;;28.16;24.20
21826;BME280;11075;47.944;11.776;2022-08-19T09:53:21;94298.41;;;26.83;25.15
21826;BME280;11075;47.944;11.776;2022-08-19T09:55:51;94294.53;;;26.81;24.84
21826;BME280;11075;47.944;11.776;2022-08-19T09:58:18;94286.63;;;25.95;26.18
21826;BME280;11075;47.944;11.776;2022-08-19T10:00:51;94309.63;;;26.89;25.44
21826;BME280;11075;47.944;11.776;2022-08-19T10:03:20;94325.91;;;28.49;24.04
21826;BME280;11075;47.944;11.776;2022-08-19T10:05:51;94310.06;;;28.32;24.21
21826;BME280;11075;47.944;11.776;2022-08-19T10:08:27;94307.69;;;26.46;26.21
21826;BME280;11075;47.944;11.776;2022-08-19T10:10:55;94294.03;;;26.73;25.12
21826;BME280;11075;47.944;11.776;2022-08-19T10:13:27;94294.66;;;26.24;25.63
21826;BME280;11075;47.944;11.776;2022-08-19T10:16:02;94280.31;;;25.13;26.75
21826;BME280;11075;47.944;11.776;2022-08-19T10:18:29;94305.94;;;27.23;25.38
21826;BME280;11075;47.944;11.776;2022-08-19T10:21:08;94293.00;;;27.78;24.82
21826;BME280;11075;47.944;11.776;2022-08-19T10:23:39;94275.75;;;25.79;26.97
21826;BME280;11075;47.944;11.776;2022-08-19T10:26:07;94275.31;;;27.08;25.79
21826;BME280;11075;47.944;11.776;2022-08-19T10:28:35;94277.31;;;26.77;25.77
21826;BME280;11075;47.944;11.776;2022-08-19T10:31:09;94270.00;;;25.39;27.74
21826;BME280;11075;47.944;11.776;2022-08-19T10:33:38;94281.91;;;25.49;26.88
21826;BME280;11075;47.944;11.776;2022-08-19T10:36:21;94306.88;;;27.29;24.80
21826;BME280;11075;47.944;11.776;2022-08-19T10:38:51;94308.03;;;27.19;24.86
21826;BME280;11075;47.944;11.776;2022-08-19T10:41:25;94299.38;;;27.39;25.07
21826;BME280;11075;47.944;11.776;2022-08-19T10:43:57;94303.00;;;26.12;26.09
21826;BME280;11075;47.944;11.776;2022-08-19T10:46:30;94304.34;;;26.51;24.89
21826;BME280;11075;47.944;11.776;2022-08-19T10:49:00;94258.72;;;25.46;26.77
21826;BME280;11075;47.944;11.776;2022-08-19T10:51:28;94280.28;;;27.22;25.47
21826;BME280;11075;47.944;11.776;2022-08-19T10:54:14;94303.31;;;28.14;23.45
21826;BME280;11075;47.944;11.776;2022-08-19T10:56:41;94253.78;;;27.80;25.22
21826;BME280;11075;47.944;11.776;2022-08-19T10:59:28;94285.84;;;29.44;22.82
21826;BME280;11075;47.944;11.776;2022-08-19T11:02:04;94268.75;;;29.12;22.84
21826;BME280;11075;47.944;11.776;2022-08-19T11:04:31;94257.56;;;30.32;22.27
21826;BME280;11075;47.944;11.776;2022-08-19T11:06:59;94252.66;;;31.00;21.74
21826;BME280;11075;47.944;11.776;2022-08-19T11:09:26;94227.00;;;27.31;24.43
21826;BME280;11075;47.944;11.776;2022-08-19T11:12:00;94222.28;;;25.64;26.22
21826;BME280;11075;47.944;11.776;2022-08-19T11:14:31;94257.81;;;26.71;25.03
21826;BME280;11075;47.944;11.776;2022-08-19T11:17:01;94243.44;;;27.35;24.77
21826;BME280;11075;47.944;11.776;2022-08-19T11:19:28;94249.25;;;26.47;24.70
21826;BME280;11075;47.944;11.776;2022-08-19T11:21:55;94254.06;;;26.87;24.85
21826;BME280;11075;47.944;11.776;2022-08-19T11:24:25;94259.19;;;27.16;24.82
21826;BME280;11075;47.944;11.776;2022-08-19T11:26:53;94279.28;;;28.39;23.34
21826;BME280;11075;47.944;11.776;2022-08-19T11:29:25;94237.94;;;25.67;25.80
21826;BME280;11075;47.944;11.776;2022-08-19T11:31:54;94270.13;;;26.79;23.96
21826;BME280;11075;47.944;11.776;2022-08-19T11:34:24;94266.03;;;28.52;23.62
21826;BME280;11075;47.944;11.776;2022-08-19T11:36:53;94255.59;;;28.38;23.16
21826;BME280;11075;47.944;11.776;2022-08-19T11:39:25;94243.41;;;26.76;24.29
21826;BME280;11075;47.944;11.776;2022-08-19T11:41:52;94256.88;;;27.73;24.16
21826;BME280;11075;47.944;11.776;2022-08-19T11:44:19;94254.22;;;27.42;24.43
21826;BME280;11075;47.944;11.776;2022-08-19T11:46:46;94224.38;;;26.16;25.43
21826;BME280;11075;47.944;11.776;2022-08-19T11:49:17;94242.47;;;26.17;25.17
21826;BME280;11075;47.944;11.776;2022-08-19T11:51:48;94262.34;;;28.97;22.97
21826;BME280;11075;47.944;11.776;2022-08-19T11:54:17;94271.56;;;30.67;21.11
21826;BME280;11075;47.944;11.776;2022-08-19T11:56:44;94237.34;;;26.90;24.17
21826;BME280;11075;47.944;11.776;2022-08-19T11:59:12;94240.56;;;27.66;23.83
21826;BME280;11075;47.944;11.776;2022-08-19T12:01:40;94238.38;;;27.33;24.10
21826;BME280;11075;47.944;11.776;2022-08-19T12:04:10;94247.38;;;27.15;24.08
21826;BME280;11075;47.944;11.776;2022-08-19T12:06:39;94232.88;;;26.31;25.81
21826;BME280;11075;47.944;11.776;2022-08-19T12:09:07;94269.03;;;28.03;22.89
21826;BME280;11075;47.944;11.776;2022-08-19T12:11:37;94273.44;;;28.46;22.58
21826;BME280;11075;47.944;11.776;2022-08-19T12:14:05;94259.94;;;27.84;23.87
21826;BME280;11075;47.944;11.776;2022-08-19T12:16:32;94265.22;;;28.70;22.79
21826;BME280;11075;47.944;11.776;2022-08-19T12:19:00;94252.50;;;28.96;22.95
21826;BME280;11075;47.944;11.776;2022-08-19T12:21:33;94250.56;;;28.09;23.58
21826;BME280;11075;47.944;11.776;2022-08-19T12:24:02;94281.94;;;30.52;20.80
21826;BME280;11075;47.944;11.776;2022-08-19T12:26:30;94225.50;;;25.62;25.45
21826;BME280;11075;47.944;11.776;2022-08-19T12:28:58;94251.28;;;27.27;24.49
21826;BME280;11075;47.944;11.776;2022-08-19T12:31:29;94259.84;;;27.20;24.16
21826;BME280;11075;47.944;11.776;2022-08-19T12:33:56;94263.59;;;28.45;23.36
21826;BME280;11075;47.944;11.776;2022-08-19T12:36:24;94263.78;;;29.16;22.94
21826;BME280;11075;47.944;11.776;2022-08-19T12:38:52;94277.75;;;29.79;21.54
21826;BME280;11075;47.944;11.776;2022-08-19T12:41:19;94267.50;;;28.71;22.98
21826;BME280;11075;47.944;11.776;2022-08-19T12:43:49;94254.72;;;27.68;23.14
21826;BME280;11075;47.944;11.776;2022-08-19T12:46:18;94269.78;;;27.85;23.03
21826;BME280;11075;47.944;11.776;2022-08-19T12:48:47;94275.50;;;29.44;21.70
21826;BME280;11075;47.944;11.776;2022-08-19T12:51:20;94243.22;;;27.11;24.10
21826;BME280;11075;47.944;11.776;2022-08-19T12:53:47;94288.28;;;29.75;21.34
21826;BME280;11075;47.944;11.776;2022-08-19T12:56:16;94270.13;;;29.89;21.62
21826;BME280;11075;47.944;11.776;2022-08-19T12:58:48;94263.97;;;30.08;21.70
21826;BME280;11075;47.944;11.776;2022-08-19T13:01:17;94254.97;;;28.34;23.56
21826;BME280;11075;47.944;11.776;2022-08-19T13:03:49;94245.53;;;26.41;25.56
21826;BME280;11075;47.944;11.776;2022-08-19T13:06:16;94281.28;;;29.32;23.17
21826;BME280;11075;47.944;11.776;2022-08-19T13:08:46;94286.06;;;29.31;22.73
21826;BME280;11075;47.944;11.776;2022-08-19T13:11:16;94275.28;;;28.40;22.63
21826;BME280;11075;47.944;11.776;2022-08-19T13:13:45;94293.94;;;29.24;21.48
21826;BME280;11075;47.944;11.776;2022-08-19T13:16:14;94262.59;;;29.41;22.70
21826;BME280;11075;47.944;11.776;2022-08-19T13:18:42;94290.81;;;31.00;20.74
21826;BME280;11075;47.944;11.776;2022-08-19T13:21:10;94263.69;;;29.82;22.24